Time;durP1;ratioP1;P1;durP2;ratioP2;P2;SDS_P1;SDS_P2;PMS_P1;PMS_P2;Temp;Humidity;BMP_temperature;BMP_pressure;BME280_temperature;BME280_humidity;BME280_pressure;Samples;Min_cycle;Max_cycle;Signal;HPM_P1;HPM_P2
2023/05/14 00:00:46;;;;;;;6.18;5.55;;;;;;;13.33;65.77;97280.94;4923059;28;20209;-81
2023/05/14 00:03:12;;;;;;;5.65;5.15;;;;;;;13.43;66.07;97299.28;4936227;28;20044;-82
2023/05/14 00:05:37;;;;;;;5.38;4.88;;;;;;;13.36;66.34;97291.69;4941222;28;20069;-81
2023/05/14 00:08:03;;;;;;;5.15;4.75;;;;;;;13.34;65.92;97296.38;4922742;28;20083;-81
2023/05/14 00:10:28;;;;;;;5.28;4.78;;;;;;;13.17;67.28;97293.97;4901339;28;20337;-82
2023/05/14 00:12:57;;;;;;;4.90;4.50;;;;;;;13.27;66.24;97283.53;4917338;28;20436;-82
2023/05/14 00:15:22;;;;;;;4.50;4.10;;;;;;;13.25;66.50;97262.09;4940578;28;20030;-82
2023/05/14 00:17:48;;;;;;;4.38;4.07;;;;;;;13.43;65.74;97286.97;4914272;28;20033;-82
2023/05/14 00:20:13;;;;;;;3.55;3.33;;;;;;;13.34;65.89;97274.69;4923992;28;20345;-82
2023/05/14 00:22:39;;;;;;;5.35;4.95;;;;;;;13.33;66.16;97275.72;4906651;28;20186;-82
2023/05/14 00:25:05;;;;;;;5.47;4.93;;;;;;;13.34;66.55;97280.69;4939666;28;20061;-82
2023/05/14 00:27:36;;;;;;;5.93;5.40;;;;;;;13.36;66.25;97291.69;4924548;28;20121;-81
2023/05/14 00:30:03;;;;;;;5.40;4.90;;;;;;;13.30;66.79;97285.63;4906165;28;20044;-82
2023/05/14 00:32:28;;;;;;;5.43;5.00;;;;;;;13.34;66.60;97290.38;4927631;28;20707;-82
2023/05/14 00:34:54;;;;;;;5.38;4.88;;;;;;;13.30;66.18;97285.63;4921537;28;20233;-82
2023/05/14 00:37:19;;;;;;;5.95;5.38;;;;;;;13.23;66.39;97258.94;4909709;28;20045;-82
2023/05/14 00:39:45;;;;;;;5.70;5.15;;;;;;;13.38;66.25;97278.34;4934786;28;20034;-82
2023/05/14 00:42:10;;;;;;;5.82;5.32;;;;;;;13.40;66.58;97276.25;4905582;28;20023;-82
2023/05/14 00:44:36;;;;;;;5.15;4.70;;;;;;;13.42;66.76;97271.56;4895562;28;20029;-82
2023/05/14 00:47:01;;;;;;;5.57;5.07;;;;;;;13.42;66.40;97274.19;4925485;28;20026;-82
2023/05/14 00:49:27;;;;;;;6.38;5.78;;;;;;;13.37;66.34;97276.78;4942143;28;20034;-82
2023/05/14 00:51:53;;;;;;;5.95;5.35;;;;;;;13.21;66.54;97255.00;4909793;28;20093;-82
2023/05/14 00:54:19;;;;;;;5.45;4.95;;;;;;;13.34;66.70;97272.06;4941663;28;20799;-82
2023/05/14 00:56:45;;;;;;;5.40;4.90;;;;;;;13.16;66.88;97252.38;4924532;28;20420;-82
2023/05/14 00:59:12;;;;;;;5.72;5.22;;;;;;;13.27;66.63;97265.22;4941344;28;20109;-82
2023/05/14 01:01:38;;;;;;;4.95;4.30;;;;;;;13.15;66.41;97251.59;4925671;28;20041;-82
2023/05/14 01:04:03;;;;;;;5.10;4.68;;;;;;;13.23;66.03;97269.41;4959902;22;20224;-78
2023/05/14 01:06:47;;;;;;;6.35;5.75;;;;;;;13.22;66.05;97272.28;4915690;28;20152;-77
2023/05/14 01:09:22;;;;;;;6.20;5.60;;;;;;;13.04;66.37;97260.47;4932637;28;20042;-77
2023/05/14 01:11:51;;;;;;;5.67;5.17;;;;;;;12.97;66.38;97267.75;4928082;28;20036;-77
2023/05/14 01:14:27;;;;;;;4.55;4.15;;;;;;;13.10;66.06;97273.28;4911609;28;20409;-77
2023/05/14 01:16:56;;;;;;;5.28;4.78;;;;;;;13.05;66.56;97270.66;4944409;28;20041;-78
2023/05/14 01:19:38;;;;;;;5.75;5.25;;;;;;;13.15;66.58;97267.28;4917095;28;20030;-77
2023/05/14 01:22:09;;;;;;;6.30;4.60;;;;;;;13.11;66.20;97268.88;4927717;28;20057;-77
2023/05/14 01:24:34;;;;;;;5.45;4.95;;;;;;;13.06;66.23;97263.63;4910332;28;20029;-77
2023/05/14 01:27:16;;;;;;;5.38;4.88;;;;;;;13.16;66.30;97261.03;4928501;28;20038;-78
2023/05/14 01:29:44;;;;;;;5.53;5.03;;;;;;;13.09;66.43;97263.88;4944215;28;20026;-77
2023/05/14 01:32:11;;;;;;;4.80;4.40;;;;;;;13.02;66.38;97265.16;4909257;28;20132;-78
2023/05/14 01:34:37;;;;;;;4.90;4.50;;;;;;;12.98;66.43;97259.66;4918013;28;20686;-78
2023/05/14 01:37:04;;;;;;;4.68;4.25;;;;;;;13.00;66.39;97262.03;4934314;28;20350;-77
2023/05/14 01:39:31;;;;;;;5.68;4.85;;;;;;;13.02;66.60;97260.75;4898586;28;20022;-78
2023/05/14 01:41:57;;;;;;;5.78;5.20;;;;;;;13.07;66.75;97254.72;4931080;28;20022;-77
2023/05/14 01:44:22;;;;;;;5.15;4.75;;;;;;;13.10;66.25;97262.06;4924223;28;20053;-77
2023/05/14 01:46:47;;;;;;;5.43;4.93;;;;;;;13.07;66.11;97246.88;4926688;28;20061;-77
2023/05/14 01:49:13;;;;;;;7.35;6.55;;;;;;;13.07;66.51;97257.34;4893273;28;20112;-77
2023/05/14 01:51:38;;;;;;;6.38;5.85;;;;;;;13.07;66.86;97249.50;4932646;28;20365;-77
2023/05/14 01:54:04;;;;;;;7.88;7.07;;;;;;;13.08;66.62;97240.63;4906050;28;20029;-77
2023/05/14 01:56:29;;;;;;;8.20;7.20;;;;;;;13.17;66.67;97251.34;4901768;28;20029;-77
2023/05/14 01:58:55;;;;;;;8.40;6.95;;;;;;;13.16;66.62;97244.53;4917294;28;20838;-77
2023/05/14 02:01:21;;;;;;;7.93;7.13;;;;;;;13.16;66.85;97245.34;4928221;28;20119;-77
2023/05/14 02:03:47;;;;;;;8.82;7.80;;;;;;;13.13;67.12;97248.47;4897553;28;20034;-77
2023/05/14 02:06:12;;;;;;;7.13;6.43;;;;;;;13.05;66.38;97259.44;4895806;28;20483;-77
2023/05/14 02:08:38;;;;;;;5.32;4.82;;;;;;;13.01;65.99;97253.16;4917856;28;20068;-78
2023/05/14 02:11:03;;;;;;;5.55;5.05;;;;;;;12.98;66.23;97251.06;4903633;28;20041;-77
2023/05/14 02:13:29;;;;;;;5.38;4.88;;;;;;;12.99;66.09;97244.75;4864970;28;20089;-78
2023/05/14 02:15:54;;;;;;;6.63;5.93;;;;;;;13.00;66.13;97246.34;4901775;28;20472;-77
2023/05/14 02:18:20;;;;;;;6.25;5.40;;;;;;;12.90;65.79;97247.91;4914174;28;20049;-77
2023/05/14 02:20:45;;;;;;;8.45;5.35;;;;;;;12.80;66.39;97241.84;4894073;28;20463;-77
2023/05/14 02:23:11;;;;;;;5.47;4.97;;;;;;;12.79;66.21;97250.72;4907879;28;20033;-77
2023/05/14 02:25:36;;;;;;;5.93;5.43;;;;;;;12.71;65.98;97244.97;4901849;28;20064;-78
2023/05/14 02:28:02;;;;;;;5.32;4.75;;;;;;;12.78;66.12;97241.31;4874716;28;20034;-78
2023/05/14 02:30:28;;;;;;;6.65;6.05;;;;;;;12.76;66.67;97236.34;4888919;28;20026;-78
2023/05/14 02:32:54;;;;;;;7.10;6.50;;;;;;;12.80;66.36;97232.19;4926745;28;20019;-78
2023/05/14 02:35:19;;;;;;;6.38;5.78;;;;;;;12.86;66.83;97232.97;4914912;28;21089;-77
2023/05/14 02:37:45;;;;;;;6.90;6.20;;;;;;;12.86;66.64;97228.53;4931892;28;20053;-77
2023/05/14 02:40:10;;;;;;;8.15;7.15;;;;;;;12.93;66.72;97231.69;4914428;28;20041;-77
2023/05/14 02:42:36;;;;;;;7.18;6.30;;;;;;;12.96;66.32;97238.22;4882974;28;20320;-78
2023/05/14 02:45:01;;;;;;;7.38;6.63;;;;;;;12.98;66.54;97232.75;4913521;28;20797;-78
2023/05/14 02:47:27;;;;;;;8.57;7.68;;;;;;;12.98;66.59;97249.22;4916977;28;20123;-78
2023/05/14 02:49:52;;;;;;;8.85;7.95;;;;;;;12.92;66.65;97235.34;4902668;28;20034;-77
2023/05/14 02:52:18;;;;;;;8.27;7.47;;;;;;;12.80;66.70;97232.19;4922841;28;20567;-77
2023/05/14 02:54:43;;;;;;;7.57;6.53;;;;;;;12.80;66.84;97234.81;4915306;28;20061;-78
2023/05/14 02:57:08;;;;;;;6.75;6.15;;;;;;;12.80;66.63;97226.97;4929740;28;20701;-78
2023/05/14 02:59:34;;;;;;;8.77;7.07;;;;;;;12.81;66.28;97225.13;4902150;28;20555;-77
2023/05/14 03:02:00;;;;;;;6.80;6.10;;;;;;;12.80;66.40;97221.75;4911855;28;20035;-78
2023/05/14 03:04:25;;;;;;;7.43;6.70;;;;;;;12.78;66.61;97226.41;4887692;28;20389;-78
2023/05/14 03:06:51;;;;;;;8.27;7.25;;;;;;;12.78;66.30;97223.81;4908986;28;20034;-77
2023/05/14 03:09:16;;;;;;;8.65;7.68;;;;;;;12.75;65.94;97216.50;4912849;28;20034;-78
2023/05/14 03:11:41;;;;;;;8.40;7.60;;;;;;;12.77;66.06;97214.41;4920627;28;20706;-78
2023/05/14 03:14:07;;;;;;;7.75;7.00;;;;;;;12.80;65.83;97226.97;4909244;28;20707;-77
2023/05/14 03:16:32;;;;;;;8.20;7.45;;;;;;;12.80;65.96;97221.75;4879533;28;20310;-77
2023/05/14 03:18:58;;;;;;;8.63;7.40;;;;;;;12.72;65.85;97223.00;4929914;28;20796;-78
2023/05/14 03:21:23;;;;;;;8.75;7.85;;;;;;;12.66;65.88;97215.41;4911774;28;20034;-77
2023/05/14 03:23:50;;;;;;;7.72;6.72;;;;;;;12.66;66.07;97223.25;4926040;28;20080;-78
2023/05/14 03:26:16;;;;;;;9.95;6.95;;;;;;;12.62;66.14;97220.38;4897741;28;20034;-78
2023/05/14 03:28:41;;;;;;;7.07;6.38;;;;;;;12.62;65.86;97230.81;4916308;28;20910;-77
2023/05/14 03:31:07;;;;;;;8.73;7.43;;;;;;;12.57;65.64;97222.19;4897784;28;20041;-77
2023/05/14 03:33:32;;;;;;;8.75;7.20;;;;;;;12.55;65.58;97230.25;4894724;28;20037;-78
2023/05/14 03:35:58;;;;;;;7.90;6.70;;;;;;;12.51;65.60;97235.22;4899903;28;20481;-78
2023/05/14 03:38:23;;;;;;;8.82;7.90;;;;;;;12.45;66.11;97222.38;4916279;28;20960;-78
2023/05/14 03:40:49;;;;;;;10.60;8.25;;;;;;;12.49;66.41;97231.28;4913268;28;20764;-77
2023/05/14 03:43:15;;;;;;;7.45;6.70;;;;;;;12.46;66.21;97227.34;4913573;28;20925;-77
2023/05/14 03:45:40;;;;;;;12.40;8.60;;;;;;;12.44;66.60;97226.84;4907478;28;20061;-77
2023/05/14 03:48:05;;;;;;;9.18;7.85;;;;;;;12.38;66.01;97227.84;4913425;28;20070;-77
2023/05/14 03:50:31;;;;;;;9.13;7.45;;;;;;;12.39;65.66;97232.03;4897577;28;20761;-77
2023/05/14 03:52:56;;;;;;;8.23;6.50;;;;;;;12.40;66.12;97230.97;4896085;28;20037;-77
2023/05/14 03:55:22;;;;;;;6.95;6.25;;;;;;;12.33;65.75;97219.97;4913694;28;20429;-77
2023/05/14 03:57:48;;;;;;;7.60;6.85;;;;;;;12.28;65.67;97225.94;4929357;28;20735;-78
2023/05/14 04:00:15;;;;;;;7.32;6.63;;;;;;;12.07;65.63;97217.25;4927932;28;20111;-77
2023/05/14 04:02:41;;;;;;;7.38;6.68;;;;;;;11.91;65.83;97215.56;4898554;28;20033;-77
2023/05/14 04:05:07;;;;;;;7.38;6.65;;;;;;;11.87;66.40;97210.03;4923508;28;20026;-77
2023/05/14 04:07:32;;;;;;;7.25;6.50;;;;;;;11.85;66.29;97209.50;4898291;28;20379;-77
2023/05/14 04:09:58;;;;;;;7.75;6.38;;;;;;;11.84;66.20;97221.00;4907026;28;20061;-77
2023/05/14 04:12:25;;;;;;;7.05;6.35;;;;;;;11.79;66.63;97219.13;4888224;28;20026;-77
2023/05/14 04:14:51;;;;;;;6.68;6.03;;;;;;;11.83;66.50;97219.41;4920382;28;20057;-77
2023/05/14 04:17:16;;;;;;;6.60;5.90;;;;;;;11.86;66.20;97218.09;4888296;28;20125;-78
2023/05/14 04:19:42;;;;;;;7.15;6.22;;;;;;;11.79;66.41;97213.91;4915417;28;20080;-77
2023/05/14 04:22:07;;;;;;;6.30;5.70;;;;;;;11.87;66.42;97209.25;4903562;28;20062;-78
2023/05/14 04:24:32;;;;;;;5.57;5.07;;;;;;;11.93;65.85;97213.50;4898914;28;20664;-77
2023/05/14 04:26:58;;;;;;;7.50;6.10;;;;;;;11.91;66.32;97216.38;4919290;28;20362;-77
2023/05/14 04:29:24;;;;;;;5.78;5.18;;;;;;;11.96;66.40;97212.97;4903762;28;20026;-78
2023/05/14 04:31:49;;;;;;;7.18;6.47;;;;;;;12.01;66.85;97207.03;4887685;28;20055;-77
2023/05/14 04:34:15;;;;;;;7.45;6.35;;;;;;;12.10;66.53;97214.13;4892812;28;20026;-78
2023/05/14 04:36:40;;;;;;;6.63;5.93;;;;;;;12.16;66.67;97212.31;4892254;28;20799;-78
2023/05/14 04:39:07;;;;;;;7.20;6.50;;;;;;;12.20;66.12;97210.78;4931315;28;20820;-77
2023/05/14 04:41:33;;;;;;;5.78;5.28;;;;;;;12.28;66.16;97219.97;4915117;28;20022;-78
2023/05/14 04:44:00;;;;;;;6.03;5.53;;;;;;;12.29;67.10;97211.09;4895937;28;20061;-78
2023/05/14 04:46:26;;;;;;;7.25;6.15;;;;;;;12.38;66.65;97220.00;4930671;28;20030;-78
2023/05/14 04:48:51;;;;;;;6.95;5.90;;;;;;;12.54;65.83;97231.28;4899640;28;20743;-78
2023/05/14 04:51:17;;;;;;;7.15;6.45;;;;;;;12.56;66.46;97221.41;4911721;28;20038;-78
2023/05/14 04:53:42;;;;;;;6.55;5.95;;;;;;;12.64;66.39;97225.34;4903341;28;20026;-78
2023/05/14 04:56:08;;;;;;;7.18;6.22;;;;;;;12.71;66.22;97229.28;4902518;28;20034;-78
2023/05/14 04:58:34;;;;;;;7.38;6.45;;;;;;;12.73;65.88;97221.16;4893138;28;20037;-78
2023/05/14 05:01:00;;;;;;;8.05;7.18;;;;;;;12.87;65.90;97227.50;4891818;28;20878;-77
2023/05/14 05:03:25;;;;;;;7.45;6.05;;;;;;;12.91;65.96;97228.53;4905812;28;20113;-78
2023/05/14 05:05:51;;;;;;;6.47;5.88;;;;;;;12.98;65.72;97233.53;4921841;28;20477;-78
2023/05/14 05:08:17;;;;;;;6.22;5.63;;;;;;;13.04;65.88;97224.66;4912460;28;20030;-78
2023/05/14 05:10:42;;;;;;;6.13;5.57;;;;;;;13.11;65.69;97224.41;4913158;28;20040;-78
2023/05/14 05:13:07;;;;;;;6.80;6.13;;;;;;;13.24;65.91;97229.13;4910226;28;20427;-77
2023/05/14 05:15:33;;;;;;;7.10;6.30;;;;;;;13.34;66.07;97230.22;4885301;28;20382;-77
2023/05/14 05:17:59;;;;;;;8.45;7.47;;;;;;;13.53;65.97;97228.66;4926351;28;20034;-77
2023/05/14 05:20:26;;;;;;;8.57;7.32;;;;;;;13.65;67.24;97223.16;4920366;28;20058;-77
2023/05/14 05:22:52;;;;;;;8.55;7.75;;;;;;;13.90;66.40;97230.22;4927514;28;20026;-78
2023/05/14 05:25:17;;;;;;;9.07;8.23;;;;;;;14.07;66.81;97226.50;4927634;28;20096;-77
2023/05/14 05:27:43;;;;;;;8.15;7.35;;;;;;;14.27;67.08;97226.44;4927117;28;20034;-77
2023/05/14 05:30:09;;;;;;;8.68;7.35;;;;;;;14.39;66.18;97231.41;4927358;28;20407;-77
2023/05/14 05:32:35;;;;;;;7.22;6.55;;;;;;;14.47;66.16;97236.09;4919668;28;20027;-77
2023/05/14 05:35:01;;;;;;;8.23;7.22;;;;;;;14.49;66.37;97235.81;4876992;28;20042;-77
2023/05/14 05:37:26;;;;;;;7.78;7.07;;;;;;;14.52;65.95;97227.44;4903429;28;20884;-77
2023/05/14 05:39:52;;;;;;;8.25;7.45;;;;;;;14.53;66.01;97235.03;4924696;28;20594;-77
2023/05/14 05:42:18;;;;;;;7.68;6.93;;;;;;;14.52;66.06;97222.19;4925673;28;20104;-77
2023/05/14 05:44:43;;;;;;;7.60;6.57;;;;;;;14.55;66.11;97226.91;4895388;28;20786;-77
2023/05/14 05:47:09;;;;;;;7.68;6.97;;;;;;;14.56;65.93;97228.47;4893113;28;20034;-78
2023/05/14 05:49:36;;;;;;;9.10;8.25;;;;;;;14.53;66.45;97229.78;4915044;28;20036;-77
2023/05/14 05:52:02;;;;;;;10.20;9.07;;;;;;;14.56;66.00;97231.06;4897070;28;20044;-77
2023/05/14 05:54:31;;;;;;;9.40;8.50;;;;;;;14.55;65.96;97234.75;4900524;28;20026;-77
2023/05/14 05:56:56;;;;;;;10.15;8.65;;;;;;;14.48;66.23;97234.25;4916235;28;20026;-77
2023/05/14 05:59:21;;;;;;;9.23;8.32;;;;;;;14.42;66.04;97233.50;4898189;28;20036;-77
2023/05/14 06:01:47;;;;;;;9.75;8.75;;;;;;;14.32;66.36;97228.28;4927413;28;20086;-77
2023/05/14 06:04:12;;;;;;;8.77;7.75;;;;;;;14.28;66.72;97229.88;4910457;28;20361;-77
2023/05/14 06:06:38;;;;;;;8.73;7.85;;;;;;;14.26;66.41;97230.16;4925419;28;20767;-77
2023/05/14 06:09:03;;;;;;;8.88;7.97;;;;;;;14.28;66.39;97230.66;4933398;28;20798;-77
2023/05/14 06:11:28;;;;;;;9.23;8.00;;;;;;;14.47;66.37;97245.78;4909024;28;20136;-77
2023/05/14 06:13:54;;;;;;;8.60;7.80;;;;;;;14.49;65.93;97239.22;4921107;28;20061;-78
2023/05/14 06:16:19;;;;;;;10.40;9.40;;;;;;;14.48;66.52;97236.88;4881482;28;20350;-77
2023/05/14 06:18:45;;;;;;;9.98;8.98;;;;;;;14.60;66.28;97250.50;4932095;28;20033;-77
2023/05/14 06:21:11;;;;;;;12.38;11.07;;;;;;;14.62;66.15;97237.91;4916204;28;20022;-77
2023/05/14 06:23:36;;;;;;;13.32;10.57;;;;;;;14.67;66.06;97229.22;4911978;28;20188;-77
2023/05/14 06:26:02;;;;;;;14.98;13.38;;;;;;;14.82;66.12;97247.50;4929719;28;20218;-77
2023/05/14 06:28:27;;;;;;;14.18;12.77;;;;;;;15.02;65.75;97246.63;4881322;28;20040;-76
2023/05/14 06:30:53;;;;;;;14.30;11.85;;;;;;;15.27;66.11;97244.91;4911712;28;20088;-77
2023/05/14 06:33:22;;;;;;;12.63;11.32;;;;;;;15.70;65.68;97234.63;4899469;28;20816;-77
2023/05/14 06:35:47;;;;;;;11.68;10.48;;;;;;;15.79;63.60;97240.09;4912234;28;20112;-76
2023/05/14 06:38:13;;;;;;;10.52;9.13;;;;;;;16.05;62.21;97243.25;4905576;28;20909;-76
2023/05/14 06:40:41;;;;;;;9.98;8.98;;;;;;;16.23;63.01;97237.28;4881362;28;20123;-77
2023/05/14 06:43:06;;;;;;;9.68;8.43;;;;;;;16.11;61.82;97236.88;4885816;28;20096;-77
2023/05/14 06:45:32;;;;;;;8.88;8.05;;;;;;;16.33;61.85;97243.47;4911711;28;20033;-77
2023/05/14 06:47:57;;;;;;;9.02;7.85;;;;;;;16.26;61.04;97242.00;4916135;28;20030;-77
2023/05/14 06:50:23;;;;;;;8.52;7.63;;;;;;;16.26;61.58;97247.25;4899453;28;20622;-76
2023/05/14 06:52:48;;;;;;;8.05;7.25;;;;;;;16.30;62.25;97242.22;4911516;28;20029;-77
2023/05/14 06:55:14;;;;;;;8.75;7.88;;;;;;;16.25;61.92;97234.38;4931063;28;20021;-76
2023/05/14 06:57:39;;;;;;;8.50;7.70;;;;;;;16.20;62.90;97234.44;4919143;28;20443;-77
2023/05/14 07:00:05;;;;;;;9.07;8.18;;;;;;;16.09;61.38;97241.63;4894296;28;20030;-77
2023/05/14 07:02:31;;;;;;;11.50;7.75;;;;;;;16.12;62.08;97243.69;4914570;28;20030;-77
2023/05/14 07:04:56;;;;;;;9.07;7.80;;;;;;;16.11;62.02;97239.53;4914719;28;20044;-77
2023/05/14 07:07:22;;;;;;;9.18;8.15;;;;;;;16.12;62.25;97241.06;4914715;28;20228;-77
2023/05/14 07:09:47;;;;;;;8.90;7.95;;;;;;;16.31;62.90;97242.97;4913904;28;20300;-77
2023/05/14 07:12:13;;;;;;;8.68;7.65;;;;;;;16.12;62.64;97235.81;4899569;28;20882;-77
2023/05/14 07:14:38;;;;;;;8.57;7.72;;;;;;;16.05;62.50;97230.09;4931019;28;20811;-76
2023/05/14 07:17:03;;;;;;;9.30;8.38;;;;;;;16.08;62.47;97240.06;4930247;28;20441;-77
2023/05/14 07:19:29;;;;;;;8.00;7.22;;;;;;;16.29;63.39;97245.88;4912552;28;20042;-77
2023/05/14 07:21:59;;;;;;;8.60;7.35;;;;;;;16.23;62.29;97239.13;4899066;28;20044;-77
2023/05/14 07:24:24;;;;;;;8.68;7.88;;;;;;;16.51;63.68;97232.25;4918910;28;20218;-77
2023/05/14 07:26:50;;;;;;;8.95;6.90;;;;;;;16.97;62.01;97230.91;4926853;28;20335;-77
2023/05/14 07:29:15;;;;;;;7.70;6.90;;;;;;;17.33;60.27;97223.28;4910447;28;20129;-77
2023/05/14 07:31:41;;;;;;;6.85;6.13;;;;;;;17.53;58.77;97216.13;4881442;28;20042;-77
2023/05/14 07:34:07;;;;;;;7.03;6.03;;;;;;;17.81;58.75;97211.72;4917617;28;20033;-78
2023/05/14 07:36:32;;;;;;;7.05;6.45;;;;;;;17.58;58.14;97211.56;4926174;28;20029;-77
2023/05/14 07:38:58;;;;;;;6.82;6.22;;;;;;;17.84;58.49;97218.25;4927500;28;20022;-76
2023/05/14 07:41:23;;;;;;;7.55;6.85;;;;;;;18.06;57.66;97215.00;4916825;28;20034;-77
2023/05/14 07:43:49;;;;;;;6.60;5.72;;;;;;;18.37;57.26;97212.59;4927134;28;20422;-77
2023/05/14 07:46:15;;;;;;;6.50;5.45;;;;;;;18.23;56.32;97214.41;4930117;28;20069;-78
2023/05/14 07:48:40;;;;;;;6.53;5.40;;;;;;;18.57;56.38;97211.38;4900839;28;20022;-77
2023/05/14 07:51:06;;;;;;;6.10;5.50;;;;;;;18.78;54.78;97197.75;4915587;28;20512;-77
2023/05/14 07:53:31;;;;;;;6.07;5.47;;;;;;;18.80;54.22;97201.69;4915345;28;20558;-78
2023/05/14 07:55:58;;;;;;;5.68;5.18;;;;;;;19.23;54.74;97200.50;4930862;28;20041;-77
2023/05/14 07:58:25;;;;;;;5.38;4.88;;;;;;;19.49;53.74;97203.31;4911592;28;20034;-77
2023/05/14 08:00:51;;;;;;;5.60;5.03;;;;;;;19.52;52.65;97205.34;4915293;28;20099;-77
2023/05/14 08:03:16;;;;;;;5.53;4.88;;;;;;;19.28;50.11;97201.16;4908599;28;20689;-78
2023/05/14 08:05:41;;;;;;;5.95;5.45;;;;;;;19.21;50.41;97200.78;4916109;28;20591;-78
2023/05/14 08:08:07;;;;;;;5.63;5.03;;;;;;;19.01;51.42;97203.91;4915384;28;20851;-78
2023/05/14 08:10:32;;;;;;;5.20;4.43;;;;;;;19.04;50.17;97201.44;4931898;28;20033;-78
2023/05/14 08:12:58;;;;;;;5.07;4.50;;;;;;;19.33;51.22;97208.19;4909915;28;20393;-78
2023/05/14 08:15:23;;;;;;;5.68;4.75;;;;;;;19.30;49.59;97197.44;4888127;28;20050;-77
2023/05/14 08:17:48;;;;;;;5.03;4.53;;;;;;;19.52;50.48;97200.06;4927961;28;21071;-77
2023/05/14 08:20:14;;;;;;;4.78;4.38;;;;;;;19.63;49.06;97201.34;4906055;28;20034;-77
2023/05/14 08:22:39;;;;;;;4.80;4.40;;;;;;;19.90;50.24;97206.81;4896329;28;20034;-77
2023/05/14 08:25:06;;;;;;;5.10;4.70;;;;;;;20.07;50.40;97209.53;4906695;28;20031;-79
2023/05/14 08:27:32;;;;;;;4.90;4.50;;;;;;;20.13;49.03;97203.00;4925382;28;20053;-77
2023/05/14 08:29:57;;;;;;;4.82;4.43;;;;;;;20.36;47.74;97190.50;4929934;28;20034;-77
2023/05/14 08:32:23;;;;;;;5.00;4.60;;;;;;;19.54;49.59;97202.41;4932833;28;20044;-78
2023/05/14 08:34:48;;;;;;;5.28;4.80;;;;;;;19.68;50.24;97186.47;4896282;28;20392;-78
2023/05/14 08:37:14;;;;;;;4.63;4.22;;;;;;;20.33;49.62;97185.81;4914021;28;20685;-77
2023/05/14 08:39:39;;;;;;;4.80;4.30;;;;;;;20.49;48.20;97195.97;4912184;28;20038;-79
2023/05/14 08:42:06;;;;;;;4.80;4.40;;;;;;;20.73;47.29;97192.91;4910414;28;20704;-76
2023/05/14 08:44:44;;;;;;;5.38;4.88;;;;;;;21.00;47.75;97191.09;4914045;28;20112;-78
2023/05/14 08:47:10;;;;;;;4.82;4.43;;;;;;;21.22;47.03;97182.19;4912551;28;20297;-78
2023/05/14 08:49:36;;;;;;;4.80;4.40;;;;;;;21.38;46.71;97185.91;4912999;28;20017;-79
2023/05/14 08:52:01;;;;;;;4.95;4.53;;;;;;;21.14;46.64;97191.69;4928039;28;20811;-77
2023/05/14 08:54:28;;;;;;;4.90;4.50;;;;;;;20.56;46.81;97193.66;4926675;28;20034;-78
2023/05/14 08:56:54;;;;;;;5.00;4.60;;;;;;;19.79;48.89;97196.53;4914614;28;20038;-79
2023/05/14 08:59:19;;;;;;;5.53;4.97;;;;;;;19.26;49.30;97187.47;4916855;28;20108;-78
2023/05/14 09:01:47;;;;;;;4.60;4.20;;;;;;;19.56;48.50;97185.16;4896587;28;20060;-78
2023/05/14 09:04:14;;;;;;;4.90;4.50;;;;;;;19.05;49.28;97178.47;4908167;28;20089;-78
2023/05/14 09:06:41;;;;;;;4.65;4.25;;;;;;;18.88;49.40;97168.53;4909468;28;20206;-78
2023/05/14 09:09:06;;;;;;;4.75;4.35;;;;;;;18.56;48.68;97169.47;4921382;28;20128;-79
2023/05/14 09:11:32;;;;;;;4.25;3.92;;;;;;;18.97;49.84;97171.25;4910916;28;20043;-79
2023/05/14 09:13:57;;;;;;;4.30;3.90;;;;;;;19.39;48.16;97170.00;4913249;28;20030;-78
2023/05/14 09:16:24;;;;;;;3.35;3.10;;;;;;;19.92;45.98;97160.50;4916282;28;20377;-77
2023/05/14 09:18:50;;;;;;;4.53;3.40;;;;;;;20.34;46.07;97160.94;4916529;28;20141;-78
2023/05/14 09:21:16;;;;;;;3.75;3.45;;;;;;;20.69;46.69;97161.00;4897770;28;20803;-78
2023/05/14 09:23:43;;;;;;;4.28;3.30;;;;;;;20.92;45.65;97156.38;4915503;28;20112;-78
2023/05/14 09:26:09;;;;;;;3.55;3.25;;;;;;;20.81;44.64;97157.00;4916133;28;20080;-79
2023/05/14 09:28:34;;;;;;;3.28;2.92;;;;;;;20.74;44.08;97154.81;4897800;28;20023;-78
2023/05/14 09:31:01;;;;;;;2.85;2.65;;;;;;;20.82;45.70;97153.22;4915524;28;20453;-78
2023/05/14 09:33:27;;;;;;;3.70;3.40;;;;;;;20.84;45.16;97157.13;4914403;28;20022;-78
2023/05/14 09:36:00;;;;;;;3.30;2.60;;;;;;;20.27;44.84;97165.91;4930545;28;20278;-78
2023/05/14 09:38:32;;;;;;;3.88;3.53;;;;;;;19.93;44.08;97154.13;4938261;28;20041;-79
2023/05/14 09:40:58;;;;;;;2.85;2.65;;;;;;;20.09;43.95;97156.38;4909900;28;20041;-78
2023/05/14 09:43:24;;;;;;;2.65;2.45;;;;;;;19.94;44.28;97158.31;4919399;28;20037;-79
2023/05/14 09:45:50;;;;;;;3.70;3.40;;;;;;;19.51;44.86;97150.97;4918479;28;20022;-79
2023/05/14 09:48:16;;;;;;;2.90;2.30;;;;;;;20.10;44.50;97161.34;4936234;28;20666;-79
2023/05/14 09:50:42;;;;;;;2.40;2.20;;;;;;;19.46;43.28;97159.00;4906763;28;20973;-79
2023/05/14 09:53:08;;;;;;;3.17;2.97;;;;;;;19.62;45.34;97152.28;4937679;28;20031;-77
2023/05/14 09:55:35;;;;;;;3.10;2.90;;;;;;;19.76;46.04;97156.72;4921956;28;20060;-80
2023/05/14 09:58:01;;;;;;;3.17;2.83;;;;;;;19.77;44.73;97155.63;4912078;28;20027;-76
2023/05/14 10:00:26;;;;;;;2.90;2.55;;;;;;;20.10;45.80;97160.56;4927743;28;20034;-77
2023/05/14 10:02:53;;;;;;;2.55;2.25;;;;;;;20.04;45.48;97146.72;4914943;28;20124;-76
2023/05/14 10:05:20;;;;;;;3.20;3.00;;;;;;;20.34;44.74;97153.03;4927841;28;20616;-79
2023/05/14 10:07:47;;;;;;;3.78;3.08;;;;;;;20.48;44.18;97152.88;4910659;28;20030;-76
2023/05/14 10:10:15;;;;;;;2.63;2.42;;;;;;;20.00;44.05;97151.84;4920245;28;20041;-81
2023/05/14 10:12:43;;;;;;;3.28;3.08;;;;;;;19.55;44.41;97146.66;4918353;28;20053;-77
2023/05/14 10:15:16;;;;;;;3.78;3.20;;;;;;;19.97;44.39;97157.72;4914678;28;20077;-79
2023/05/14 10:17:46;;;;;;;3.10;2.80;;;;;;;19.90;44.05;97156.63;4916639;28;20033;-76
2023/05/14 10:20:14;;;;;;;3.78;3.05;;;;;;;19.71;44.85;97159.47;4900791;28;20025;-80
2023/05/14 10:22:40;;;;;;;3.58;3.20;;;;;;;19.44;46.57;97154.03;4917325;28;20064;-78
2023/05/14 10:25:07;;;;;;;3.90;3.60;;;;;;;19.14;46.54;97150.28;4926581;28;20491;-79
2023/05/14 10:27:32;;;;;;;4.40;4.00;;;;;;;19.06;47.07;97158.91;4893252;28;20112;-79
2023/05/14 10:29:58;;;;;;;3.63;3.35;;;;;;;19.24;47.27;97150.03;4891327;28;21000;-79
2023/05/14 10:32:24;;;;;;;3.78;3.47;;;;;;;19.38;46.58;97151.81;4896055;28;20819;-79
2023/05/14 10:34:51;;;;;;;3.70;3.40;;;;;;;19.32;47.99;97158.31;4909218;28;20037;-79
2023/05/14 10:37:17;;;;;;;4.07;3.67;;;;;;;19.16;47.01;97149.97;4923865;28;20053;-78
2023/05/14 10:39:48;;;;;;;4.03;3.72;;;;;;;19.33;47.29;97144.03;4924408;28;20030;-79
2023/05/14 10:42:16;;;;;;;4.20;3.80;;;;;;;19.57;47.63;97148.97;4906177;28;20133;-78
2023/05/14 10:44:48;;;;;;;4.10;3.50;;;;;;;19.75;47.64;97148.00;4896485;28;20460;-76
2023/05/14 10:47:15;;;;;;;3.35;3.05;;;;;;;20.30;47.23;97143.34;4896026;28;20072;-75
2023/05/14 10:49:42;;;;;;;3.78;3.47;;;;;;;20.59;45.91;97145.41;4918623;28;20036;-76
2023/05/14 10:52:08;;;;;;;3.90;3.45;;;;;;;20.26;45.42;97137.91;4886068;28;20035;-77
2023/05/14 10:54:37;;;;;;;4.00;3.00;;;;;;;20.13;44.79;97136.94;4917449;28;20041;-76
2023/05/14 10:57:03;;;;;;;3.08;2.88;;;;;;;20.39;45.42;97137.00;4928116;28;20030;-76
2023/05/14 10:59:28;;;;;;;3.45;3.15;;;;;;;20.26;44.33;97137.13;4925233;28;20089;-80
2023/05/14 11:01:57;;;;;;;3.58;3.03;;;;;;;20.26;44.07;97132.63;4930077;28;20025;-79
2023/05/14 11:04:23;;;;;;;3.22;2.67;;;;;;;20.29;44.61;97139.94;4906117;28;20038;-79
2023/05/14 11:06:50;;;;;;;3.10;2.90;;;;;;;20.27;46.14;97139.47;4934826;28;20042;-78
2023/05/14 11:09:16;;;;;;;3.35;3.05;;;;;;;20.10;45.13;97132.28;4916531;28;20108;-79
2023/05/14 11:11:42;;;;;;;3.33;3.03;;;;;;;19.66;44.99;97133.94;4906273;28;20133;-78
2023/05/14 11:14:08;;;;;;;3.00;2.70;;;;;;;19.98;44.81;97129.41;4910484;28;20323;-79
2023/05/14 11:16:34;;;;;;;3.10;2.90;;;;;;;20.63;44.49;97132.38;4902680;28;20061;-78
2023/05/14 11:19:02;;;;;;;4.47;3.22;;;;;;;20.59;44.51;97122.38;4913509;28;20320;-79
2023/05/14 11:21:28;;;;;;;3.72;3.42;;;;;;;20.73;43.06;97113.53;4909232;28;20022;-79
2023/05/14 11:23:54;;;;;;;4.22;3.72;;;;;;;20.55;44.13;97124.09;4901206;28;20030;-79
2023/05/14 11:26:20;;;;;;;3.35;2.97;;;;;;;20.37;44.19;97123.31;4913948;28;20080;-80